sensor_id;sensor_type;location;lat;lon;timestamp;temperature;humidity
23560;DHT22;11958;50.836;4.438;2024-01-07T00:00:42;3.90;84.60
23560;DHT22;11958;50.836;4.438;2024-01-07T00:03:08;3.90;84.40
23560;DHT22;11958;50.836;4.438;2024-01-07T00:05:36;3.60;84.60
23560;DHT22;11958;50.836;4.438;2024-01-07T00:08:02;3.80;84.70
23560;DHT22;11958;50.836;4.438;2024-01-07T00:10:28;3.60;85.00
23560;DHT22;11958;50.836;4.438;2024-01-07T00:12:54;3.60;84.70
23560;DHT22;11958;50.836;4.438;2024-01-07T00:15:19;3.80;84.80
23560;DHT22;11958;50.836;4.438;2024-01-07T00:17:45;3.50;84.90
23560;DHT22;11958;50.836;4.438;2024-01-07T00:20:11;3.70;85.20
23560;DHT22;11958;50.836;4.438;2024-01-07T00:22:36;4.00;84.80
23560;DHT22;11958;50.836;4.438;2024-01-07T00:25:02;3.70;84.60
23560;DHT22;11958;50.836;4.438;2024-01-07T00:27:28;3.80;84.50
23560;DHT22;11958;50.836;4.438;2024-01-07T00:29:53;3.70;84.90
23560;DHT22;11958;50.836;4.438;2024-01-07T00:32:19;3.70;84.90
23560;DHT22;11958;50.836;4.438;2024-01-07T00:34:44;3.80;85.20
23560;DHT22;11958;50.836;4.438;2024-01-07T00:37:10;3.70;85.30
23560;DHT22;11958;50.836;4.438;2024-01-07T00:39:36;3.60;85.10
23560;DHT22;11958;50.836;4.438;2024-01-07T00:42:01;3.70;85.20
23560;DHT22;11958;50.836;4.438;2024-01-07T00:44:27;3.70;85.40
23560;DHT22;11958;50.836;4.438;2024-01-07T00:46:53;3.80;84.80
23560;DHT22;11958;50.836;4.438;2024-01-07T00:49:18;3.80;85.50
23560;DHT22;11958;50.836;4.438;2024-01-07T00:51:44;3.60;85.20
23560;DHT22;11958;50.836;4.438;2024-01-07T00:54:09;3.70;85.50
23560;DHT22;11958;50.836;4.438;2024-01-07T00:56:35;3.60;85.60
23560;DHT22;11958;50.836;4.438;2024-01-07T00:59:01;3.60;85.50
23560;DHT22;11958;50.836;4.438;2024-01-07T01:01:27;3.90;85.00
23560;DHT22;11958;50.836;4.438;2024-01-07T01:03:53;3.80;85.10
23560;DHT22;11958;50.836;4.438;2024-01-07T01:06:18;3.70;85.00
23560;DHT22;11958;50.836;4.438;2024-01-07T01:08:44;3.70;84.80
23560;DHT22;11958;50.836;4.438;2024-01-07T01:11:10;3.70;85.00
23560;DHT22;11958;50.836;4.438;2024-01-07T01:13:36;3.80;85.20
23560;DHT22;11958;50.836;4.438;2024-01-07T01:16:01;3.80;84.60
23560;DHT22;11958;50.836;4.438;2024-01-07T01:18:27;3.80;84.60
23560;DHT22;11958;50.836;4.438;2024-01-07T01:20:53;3.70;84.30
23560;DHT22;11958;50.836;4.438;2024-01-07T01:23:18;3.70;84.30
23560;DHT22;11958;50.836;4.438;2024-01-07T01:25:44;3.50;84.60
23560;DHT22;11958;50.836;4.438;2024-01-07T01:28:12;3.70;84.70
23560;DHT22;11958;50.836;4.438;2024-01-07T01:30:38;3.70;84.80
23560;DHT22;11958;50.836;4.438;2024-01-07T01:33:04;3.70;84.50
23560;DHT22;11958;50.836;4.438;2024-01-07T01:35:30;3.40;84.60
23560;DHT22;11958;50.836;4.438;2024-01-07T01:37:56;3.60;84.70
23560;DHT22;11958;50.836;4.438;2024-01-07T01:40:22;3.80;84.50
23560;DHT22;11958;50.836;4.438;2024-01-07T01:42:47;3.90;84.60
23560;DHT22;11958;50.836;4.438;2024-01-07T01:45:14;3.50;84.20
23560;DHT22;11958;50.836;4.438;2024-01-07T01:47:40;3.70;84.50
23560;DHT22;11958;50.836;4.438;2024-01-07T01:50:07;3.70;85.00
23560;DHT22;11958;50.836;4.438;2024-01-07T01:52:33;3.60;84.70
23560;DHT22;11958;50.836;4.438;2024-01-07T01:55:00;3.50;85.10
23560;DHT22;11958;50.836;4.438;2024-01-07T01:57:33;3.80;84.50
23560;DHT22;11958;50.836;4.438;2024-01-07T02:00:04;3.90;84.20
23560;DHT22;11958;50.836;4.438;2024-01-07T02:02:31;3.80;83.00
23560;DHT22;11958;50.836;4.438;2024-01-07T02:05:02;3.70;83.40
23560;DHT22;11958;50.836;4.438;2024-01-07T02:07:29;3.20;83.90
23560;DHT22;11958;50.836;4.438;2024-01-07T02:09:55;3.60;83.70
23560;DHT22;11958;50.836;4.438;2024-01-07T02:12:21;3.50;83.90
23560;DHT22;11958;50.836;4.438;2024-01-07T02:14:46;3.30;83.20
23560;DHT22;11958;50.836;4.438;2024-01-07T02:17:12;3.10;83.60
23560;DHT22;11958;50.836;4.438;2024-01-07T02:19:38;3.30;83.80
23560;DHT22;11958;50.836;4.438;2024-01-07T02:22:04;3.60;82.90
23560;DHT22;11958;50.836;4.438;2024-01-07T02:24:29;3.30;82.40
23560;DHT22;11958;50.836;4.438;2024-01-07T02:26:56;3.20;82.00
23560;DHT22;11958;50.836;4.438;2024-01-07T02:29:22;3.20;81.50
23560;DHT22;11958;50.836;4.438;2024-01-07T02:31:47;3.30;82.10
23560;DHT22;11958;50.836;4.438;2024-01-07T02:34:13;3.20;82.00
23560;DHT22;11958;50.836;4.438;2024-01-07T02:36:39;3.10;81.50
23560;DHT22;11958;50.836;4.438;2024-01-07T02:39:04;3.00;81.50
23560;DHT22;11958;50.836;4.438;2024-01-07T02:41:30;3.00;81.00
23560;DHT22;11958;50.836;4.438;2024-01-07T02:43:56;2.80;81.30
23560;DHT22;11958;50.836;4.438;2024-01-07T02:46:24;2.80;81.30
23560;DHT22;11958;50.836;4.438;2024-01-07T02:48:49;3.00;81.50
23560;DHT22;11958;50.836;4.438;2024-01-07T02:51:15;2.90;81.30
23560;DHT22;11958;50.836;4.438;2024-01-07T02:53:41;3.20;81.30
23560;DHT22;11958;50.836;4.438;2024-01-07T02:56:06;2.90;81.40
23560;DHT22;11958;50.836;4.438;2024-01-07T02:58:34;3.00;81.40
23560;DHT22;11958;50.836;4.438;2024-01-07T03:00:59;2.90;81.30
23560;DHT22;11958;50.836;4.438;2024-01-07T03:03:26;3.00;81.20
23560;DHT22;11958;50.836;4.438;2024-01-07T03:05:51;3.10;81.70
23560;DHT22;11958;50.836;4.438;2024-01-07T03:08:17;3.10;81.30
23560;DHT22;11958;50.836;4.438;2024-01-07T03:10:43;3.40;80.80
23560;DHT22;11958;50.836;4.438;2024-01-07T03:13:08;3.00;81.00
23560;DHT22;11958;50.836;4.438;2024-01-07T03:15:34;2.90;81.40
23560;DHT22;11958;50.836;4.438;2024-01-07T03:17:59;2.90;81.60
23560;DHT22;11958;50.836;4.438;2024-01-07T03:20:25;3.00;82.00
23560;DHT22;11958;50.836;4.438;2024-01-07T03:22:51;3.00;81.40
23560;DHT22;11958;50.836;4.438;2024-01-07T03:25:16;3.30;81.50
23560;DHT22;11958;50.836;4.438;2024-01-07T03:27:42;2.90;81.70
23560;DHT22;11958;50.836;4.438;2024-01-07T03:30:08;3.10;82.10
23560;DHT22;11958;50.836;4.438;2024-01-07T03:32:35;3.10;82.20
23560;DHT22;11958;50.836;4.438;2024-01-07T03:35:01;2.80;82.30
23560;DHT22;11958;50.836;4.438;2024-01-07T03:37:27;2.90;82.40
23560;DHT22;11958;50.836;4.438;2024-01-07T03:39:53;3.10;82.50
23560;DHT22;11958;50.836;4.438;2024-01-07T03:42:18;2.80;82.70
23560;DHT22;11958;50.836;4.438;2024-01-07T03:44:44;2.90;82.60
23560;DHT22;11958;50.836;4.438;2024-01-07T03:47:10;2.70;83.00
23560;DHT22;11958;50.836;4.438;2024-01-07T03:49:36;3.00;83.30
23560;DHT22;11958;50.836;4.438;2024-01-07T03:52:04;2.80;83.30
23560;DHT22;11958;50.836;4.438;2024-01-07T03:54:29;2.90;83.00
23560;DHT22;11958;50.836;4.438;2024-01-07T03:56:55;2.90;83.40
23560;DHT22;11958;50.836;4.438;2024-01-07T03:59:24;2.90;83.30
23560;DHT22;11958;50.836;4.438;2024-01-07T04:01:53;3.10;83.60
23560;DHT22;11958;50.836;4.438;2024-01-07T04:04:19;3.10;83.10
23560;DHT22;11958;50.836;4.438;2024-01-07T04:06:44;3.00;82.50
23560;DHT22;11958;50.836;4.438;2024-01-07T04:09:10;2.90;83.50
23560;DHT22;11958;50.836;4.438;2024-01-07T04:11:40;3.00;83.90
23560;DHT22;11958;50.836;4.438;2024-01-07T04:14:06;2.90;84.20
23560;DHT22;11958;50.836;4.438;2024-01-07T04:16:32;3.10;83.90
23560;DHT22;11958;50.836;4.438;2024-01-07T04:18:57;3.60;83.00
23560;DHT22;11958;50.836;4.438;2024-01-07T04:21:23;3.10;83.10
23560;DHT22;11958;50.836;4.438;2024-01-07T04:23:49;3.00;83.80
23560;DHT22;11958;50.836;4.438;2024-01-07T04:26:14;2.90;84.10
23560;DHT22;11958;50.836;4.438;2024-01-07T04:28:44;2.90;84.50
23560;DHT22;11958;50.836;4.438;2024-01-07T04:31:09;2.80;84.80
23560;DHT22;11958;50.836;4.438;2024-01-07T04:33:35;2.70;85.00
23560;DHT22;11958;50.836;4.438;2024-01-07T04:36:01;2.70;84.70
23560;DHT22;11958;50.836;4.438;2024-01-07T04:38:27;2.80;84.90
23560;DHT22;11958;50.836;4.438;2024-01-07T04:40:52;2.70;84.70
23560;DHT22;11958;50.836;4.438;2024-01-07T04:43:19;2.80;85.10
23560;DHT22;11958;50.836;4.438;2024-01-07T04:45:44;2.80;85.20
23560;DHT22;11958;50.836;4.438;2024-01-07T04:48:10;2.60;85.10
23560;DHT22;11958;50.836;4.438;2024-01-07T04:50:36;2.70;84.90
23560;DHT22;11958;50.836;4.438;2024-01-07T04:53:02;2.80;84.90
23560;DHT22;11958;50.836;4.438;2024-01-07T04:55:29;3.00;84.60
23560;DHT22;11958;50.836;4.438;2024-01-07T04:57:55;2.80;85.20
23560;DHT22;11958;50.836;4.438;2024-01-07T05:00:31;2.90;85.40
23560;DHT22;11958;50.836;4.438;2024-01-07T05:02:56;3.00;85.80
23560;DHT22;11958;50.836;4.438;2024-01-07T05:05:22;3.10;85.90
23560;DHT22;11958;50.836;4.438;2024-01-07T05:07:48;2.90;86.40
23560;DHT22;11958;50.836;4.438;2024-01-07T05:10:13;2.70;86.80
23560;DHT22;11958;50.836;4.438;2024-01-07T05:12:39;2.80;87.40
23560;DHT22;11958;50.836;4.438;2024-01-07T05:15:05;2.50;87.60
23560;DHT22;11958;50.836;4.438;2024-01-07T05:17:31;2.50;88.10
23560;DHT22;11958;50.836;4.438;2024-01-07T05:19:57;2.60;88.20
23560;DHT22;11958;50.836;4.438;2024-01-07T05:22:23;2.40;88.80
23560;DHT22;11958;50.836;4.438;2024-01-07T05:24:49;2.30;89.40
23560;DHT22;11958;50.836;4.438;2024-01-07T05:27:14;2.50;89.50
23560;DHT22;11958;50.836;4.438;2024-01-07T05:29:44;2.50;89.60
23560;DHT22;11958;50.836;4.438;2024-01-07T05:32:10;2.60;89.80
23560;DHT22;11958;50.836;4.438;2024-01-07T05:34:36;2.80;89.50
23560;DHT22;11958;50.836;4.438;2024-01-07T05:37:02;2.80;88.80
23560;DHT22;11958;50.836;4.438;2024-01-07T05:39:27;2.60;88.60
23560;DHT22;11958;50.836;4.438;2024-01-07T05:41:53;2.50;88.90
23560;DHT22;11958;50.836;4.438;2024-01-07T05:44:19;2.40;89.20
23560;DHT22;11958;50.836;4.438;2024-01-07T05:46:44;2.30;89.50
23560;DHT22;11958;50.836;4.438;2024-01-07T05:49:10;2.50;88.90
23560;DHT22;11958;50.836;4.438;2024-01-07T05:51:40;2.50;89.20
23560;DHT22;11958;50.836;4.438;2024-01-07T05:54:05;2.60;88.90
23560;DHT22;11958;50.836;4.438;2024-01-07T05:56:31;2.60;88.60
23560;DHT22;11958;50.836;4.438;2024-01-07T05:58:57;2.50;88.60
23560;DHT22;11958;50.836;4.438;2024-01-07T06:01:22;2.80;88.00
23560;DHT22;11958;50.836;4.438;2024-01-07T06:03:48;2.90;87.90
23560;DHT22;11958;50.836;4.438;2024-01-07T06:06:14;2.90;88.00
23560;DHT22;11958;50.836;4.438;2024-01-07T06:08:43;3.00;87.30
23560;DHT22;11958;50.836;4.438;2024-01-07T06:11:09;2.90;87.70
23560;DHT22;11958;50.836;4.438;2024-01-07T06:13:37;2.80;87.30
23560;DHT22;11958;50.836;4.438;2024-01-07T06:16:03;3.10;87.40
23560;DHT22;11958;50.836;4.438;2024-01-07T06:18:29;2.90;87.50
23560;DHT22;11958;50.836;4.438;2024-01-07T06:20:55;2.80;87.30
23560;DHT22;11958;50.836;4.438;2024-01-07T06:23:20;2.80;88.60
23560;DHT22;11958;50.836;4.438;2024-01-07T06:25:46;2.80;88.00
23560;DHT22;11958;50.836;4.438;2024-01-07T06:28:11;3.20;88.20
23560;DHT22;11958;50.836;4.438;2024-01-07T06:30:37;3.20;86.80
23560;DHT22;11958;50.836;4.438;2024-01-07T06:33:03;3.10;87.10
23560;DHT22;11958;50.836;4.438;2024-01-07T06:35:29;3.20;86.70
23560;DHT22;11958;50.836;4.438;2024-01-07T06:37:56;3.00;87.00
23560;DHT22;11958;50.836;4.438;2024-01-07T06:40:21;2.70;87.00
23560;DHT22;11958;50.836;4.438;2024-01-07T06:42:48;2.60;87.70
23560;DHT22;11958;50.836;4.438;2024-01-07T06:45:15;2.50;88.50
23560;DHT22;11958;50.836;4.438;2024-01-07T06:47:41;2.70;88.70
23560;DHT22;11958;50.836;4.438;2024-01-07T06:50:07;2.50;88.80
23560;DHT22;11958;50.836;4.438;2024-01-07T06:52:33;2.90;88.80
23560;DHT22;11958;50.836;4.438;2024-01-07T06:54:58;2.90;88.70
23560;DHT22;11958;50.836;4.438;2024-01-07T06:57:24;2.70;88.40
23560;DHT22;11958;50.836;4.438;2024-01-07T06:59:50;2.60;89.00
23560;DHT22;11958;50.836;4.438;2024-01-07T07:02:15;2.50;89.50
23560;DHT22;11958;50.836;4.438;2024-01-07T07:04:41;2.60;90.10
23560;DHT22;11958;50.836;4.438;2024-01-07T07:07:07;2.60;89.20
23560;DHT22;11958;50.836;4.438;2024-01-07T07:09:32;2.70;89.70
23560;DHT22;11958;50.836;4.438;2024-01-07T07:11:59;2.80;89.50
23560;DHT22;11958;50.836;4.438;2024-01-07T07:14:25;2.90;88.90
23560;DHT22;11958;50.836;4.438;2024-01-07T07:16:51;2.70;89.00
23560;DHT22;11958;50.836;4.438;2024-01-07T07:19:16;3.10;89.50
23560;DHT22;11958;50.836;4.438;2024-01-07T07:21:43;2.60;89.20
23560;DHT22;11958;50.836;4.438;2024-01-07T07:24:09;3.00;89.80
23560;DHT22;11958;50.836;4.438;2024-01-07T07:26:35;2.80;90.00
23560;DHT22;11958;50.836;4.438;2024-01-07T07:29:06;3.20;88.70
23560;DHT22;11958;50.836;4.438;2024-01-07T07:31:40;2.80;88.70
23560;DHT22;11958;50.836;4.438;2024-01-07T07:34:09;2.70;89.60
23560;DHT22;11958;50.836;4.438;2024-01-07T07:36:34;2.80;89.80
23560;DHT22;11958;50.836;4.438;2024-01-07T07:39:00;2.40;90.20
23560;DHT22;11958;50.836;4.438;2024-01-07T07:41:26;2.80;90.40
23560;DHT22;11958;50.836;4.438;2024-01-07T07:43:51;2.60;90.70
23560;DHT22;11958;50.836;4.438;2024-01-07T07:46:17;2.70;90.00
23560;DHT22;11958;50.836;4.438;2024-01-07T07:48:43;2.70;90.20
23560;DHT22;11958;50.836;4.438;2024-01-07T07:51:08;2.60;90.20
23560;DHT22;11958;50.836;4.438;2024-01-07T07:53:34;2.90;90.20
23560;DHT22;11958;50.836;4.438;2024-01-07T07:56:03;2.60;90.10
23560;DHT22;11958;50.836;4.438;2024-01-07T07:58:28;2.60;90.20
23560;DHT22;11958;50.836;4.438;2024-01-07T08:00:54;2.60;90.50
23560;DHT22;11958;50.836;4.438;2024-01-07T08:03:20;3.20;89.50
23560;DHT22;11958;50.836;4.438;2024-01-07T08:05:46;3.10;89.10
23560;DHT22;11958;50.836;4.438;2024-01-07T08:08:12;3.00;88.60
23560;DHT22;11958;50.836;4.438;2024-01-07T08:10:37;2.70;89.10
23560;DHT22;11958;50.836;4.438;2024-01-07T08:13:03;2.70;89.00
23560;DHT22;11958;50.836;4.438;2024-01-07T08:15:29;2.80;89.40
23560;DHT22;11958;50.836;4.438;2024-01-07T08:17:54;2.70;89.80
23560;DHT22;11958;50.836;4.438;2024-01-07T08:20:20;2.60;89.30
23560;DHT22;11958;50.836;4.438;2024-01-07T08:22:46;2.60;90.00
23560;DHT22;11958;50.836;4.438;2024-01-07T08:25:11;2.50;89.90
23560;DHT22;11958;50.836;4.438;2024-01-07T08:27:37;2.40;90.20
23560;DHT22;11958;50.836;4.438;2024-01-07T08:30:03;2.50;90.40
23560;DHT22;11958;50.836;4.438;2024-01-07T08:32:29;2.60;90.30
23560;DHT22;11958;50.836;4.438;2024-01-07T08:34:55;2.50;90.30
23560;DHT22;11958;50.836;4.438;2024-01-07T08:37:20;2.40;89.90
23560;DHT22;11958;50.836;4.438;2024-01-07T08:39:46;2.30;90.00
23560;DHT22;11958;50.836;4.438;2024-01-07T08:42:12;2.30;89.80
23560;DHT22;11958;50.836;4.438;2024-01-07T08:44:37;2.20;90.00
23560;DHT22;11958;50.836;4.438;2024-01-07T08:47:05;2.40;89.70
23560;DHT22;11958;50.836;4.438;2024-01-07T08:49:31;2.30;89.40
23560;DHT22;11958;50.836;4.438;2024-01-07T08:51:58;2.50;89.30
23560;DHT22;11958;50.836;4.438;2024-01-07T08:54:24;2.60;88.90
23560;DHT22;11958;50.836;4.438;2024-01-07T08:56:50;2.50;89.10
23560;DHT22;11958;50.836;4.438;2024-01-07T08:59:15;2.70;89.10
23560;DHT22;11958;50.836;4.438;2024-01-07T09:01:41;2.30;89.00
23560;DHT22;11958;50.836;4.438;2024-01-07T09:04:07;2.40;89.30
23560;DHT22;11958;50.836;4.438;2024-01-07T09:06:32;2.40;89.60
23560;DHT22;11958;50.836;4.438;2024-01-07T09:08:58;2.20;89.80
23560;DHT22;11958;50.836;4.438;2024-01-07T09:11:24;2.30;89.80
23560;DHT22;11958;50.836;4.438;2024-01-07T09:13:50;2.30;89.20
23560;DHT22;11958;50.836;4.438;2024-01-07T09:16:16;2.60;89.20
23560;DHT22;11958;50.836;4.438;2024-01-07T09:18:42;2.30;89.00
23560;DHT22;11958;50.836;4.438;2024-01-07T09:21:10;2.40;88.80
23560;DHT22;11958;50.836;4.438;2024-01-07T09:23:37;2.40;89.50
23560;DHT22;11958;50.836;4.438;2024-01-07T09:26:02;2.40;88.90
23560;DHT22;11958;50.836;4.438;2024-01-07T09:28:28;2.50;88.20
23560;DHT22;11958;50.836;4.438;2024-01-07T09:30:54;2.60;88.10
23560;DHT22;11958;50.836;4.438;2024-01-07T09:33:19;2.50;88.00
23560;DHT22;11958;50.836;4.438;2024-01-07T09:35:48;2.40;88.00
23560;DHT22;11958;50.836;4.438;2024-01-07T09:38:13;2.60;88.10
23560;DHT22;11958;50.836;4.438;2024-01-07T09:40:39;2.60;88.00
23560;DHT22;11958;50.836;4.438;2024-01-07T09:43:05;2.60;88.50
23560;DHT22;11958;50.836;4.438;2024-01-07T09:45:31;2.40;88.70
23560;DHT22;11958;50.836;4.438;2024-01-07T09:47:57;2.80;89.20
23560;DHT22;11958;50.836;4.438;2024-01-07T09:50:23;2.60;89.00
23560;DHT22;11958;50.836;4.438;2024-01-07T09:52:48;2.20;89.00
23560;DHT22;11958;50.836;4.438;2024-01-07T09:55:27;2.20;89.10
23560;DHT22;11958;50.836;4.438;2024-01-07T09:57:55;2.30;89.30
23560;DHT22;11958;50.836;4.438;2024-01-07T10:00:24;2.50;88.90
23560;DHT22;11958;50.836;4.438;2024-01-07T10:02:57;2.40;88.70
23560;DHT22;11958;50.836;4.438;2024-01-07T10:05:23;2.40;89.10
23560;DHT22;11958;50.836;4.438;2024-01-07T10:07:49;2.40;88.60
23560;DHT22;11958;50.836;4.438;2024-01-07T10:10:15;2.40;88.40
23560;DHT22;11958;50.836;4.438;2024-01-07T10:12:44;2.40;88.10
23560;DHT22;11958;50.836;4.438;2024-01-07T10:15:10;2.50;88.20
23560;DHT22;11958;50.836;4.438;2024-01-07T10:17:36;2.40;87.40
23560;DHT22;11958;50.836;4.438;2024-01-07T10:20:03;2.60;87.30
23560;DHT22;11958;50.836;4.438;2024-01-07T10:22:33;2.40;87.30
23560;DHT22;11958;50.836;4.438;2024-01-07T10:24:58;2.60;87.10
23560;DHT22;11958;50.836;4.438;2024-01-07T10:27:24;2.20;87.20
23560;DHT22;11958;50.836;4.438;2024-01-07T10:29:50;2.30;87.10
23560;DHT22;11958;50.836;4.438;2024-01-07T10:32:19;2.50;87.00
23560;DHT22;11958;50.836;4.438;2024-01-07T10:34:46;2.10;87.90
23560;DHT22;11958;50.836;4.438;2024-01-07T10:37:12;2.20;88.30
23560;DHT22;11958;50.836;4.438;2024-01-07T10:39:38;2.30;87.80
23560;DHT22;11958;50.836;4.438;2024-01-07T10:42:04;2.10;88.20
23560;DHT22;11958;50.836;4.438;2024-01-07T10:44:32;2.40;88.00
23560;DHT22;11958;50.836;4.438;2024-01-07T10:46:58;2.30;87.80
23560;DHT22;11958;50.836;4.438;2024-01-07T10:49:27;2.20;88.10
23560;DHT22;11958;50.836;4.438;2024-01-07T10:54:28;2.40;88.40
23560;DHT22;11958;50.836;4.438;2024-01-07T10:56:57;2.30;88.70
23560;DHT22;11958;50.836;4.438;2024-01-07T10:59:23;2.40;88.00
23560;DHT22;11958;50.836;4.438;2024-01-07T11:01:49;2.50;88.10
23560;DHT22;11958;50.836;4.438;2024-01-07T11:04:23;2.60;87.10
23560;DHT22;11958;50.836;4.438;2024-01-07T11:07:17;2.60;87.30
23560;DHT22;11958;50.836;4.438;2024-01-07T11:09:47;2.50;87.00
23560;DHT22;11958;50.836;4.438;2024-01-07T11:12:16;2.50;86.80
23560;DHT22;11958;50.836;4.438;2024-01-07T11:14:43;2.30;86.60
23560;DHT22;11958;50.836;4.438;2024-01-07T11:17:53;2.40;86.80
23560;DHT22;11958;50.836;4.438;2024-01-07T11:20:21;2.40;87.00
23560;DHT22;11958;50.836;4.438;2024-01-07T11:22:49;2.40;87.00
23560;DHT22;11958;50.836;4.438;2024-01-07T11:28:03;2.50;85.90
23560;DHT22;11958;50.836;4.438;2024-01-07T12:49:31;2.20;83.80
23560;DHT22;11958;50.836;4.438;2024-01-07T12:51:56;2.40;84.50
23560;DHT22;11958;50.836;4.438;2024-01-07T12:54:22;2.20;84.10
23560;DHT22;11958;50.836;4.438;2024-01-07T12:56:50;2.30;83.90
23560;DHT22;11958;50.836;4.438;2024-01-07T12:59:15;2.20;84.00
23560;DHT22;11958;50.836;4.438;2024-01-07T13:01:41;2.30;84.00
23560;DHT22;11958;50.836;4.438;2024-01-07T13:04:07;2.20;83.60
23560;DHT22;11958;50.836;4.438;2024-01-07T13:06:35;2.00;83.60
23560;DHT22;11958;50.836;4.438;2024-01-07T13:09:01;2.00;84.10
23560;DHT22;11958;50.836;4.438;2024-01-07T13:11:29;2.30;83.40
23560;DHT22;11958;50.836;4.438;2024-01-07T13:13:55;2.50;82.70
23560;DHT22;11958;50.836;4.438;2024-01-07T13:16:25;2.30;83.20
23560;DHT22;11958;50.836;4.438;2024-01-07T13:18:51;2.10;84.10
23560;DHT22;11958;50.836;4.438;2024-01-07T13:21:17;2.20;83.90
23560;DHT22;11958;50.836;4.438;2024-01-07T13:27:09;2.30;84.10
23560;DHT22;11958;50.836;4.438;2024-01-07T13:29:55;2.50;83.30
23560;DHT22;11958;50.836;4.438;2024-01-07T13:32:21;2.20;83.30
23560;DHT22;11958;50.836;4.438;2024-01-07T13:35:10;2.30;82.90
23560;DHT22;11958;50.836;4.438;2024-01-07T13:37:59;1.90;83.70
23560;DHT22;11958;50.836;4.438;2024-01-07T13:40:27;2.00;84.10
23560;DHT22;11958;50.836;4.438;2024-01-07T13:42:58;1.90;83.90
23560;DHT22;11958;50.836;4.438;2024-01-07T13:46:13;2.10;83.90
23560;DHT22;11958;50.836;4.438;2024-01-07T13:48:38;2.20;83.70
23560;DHT22;11958;50.836;4.438;2024-01-07T13:51:06;2.20;83.10
23560;DHT22;11958;50.836;4.438;2024-01-07T13:53:32;2.10;83.60
23560;DHT22;11958;50.836;4.438;2024-01-07T13:55:58;2.40;83.30
23560;DHT22;11958;50.836;4.438;2024-01-07T13:58:52;2.20;83.10
23560;DHT22;11958;50.836;4.438;2024-01-07T14:01:29;2.00;82.40
23560;DHT22;11958;50.836;4.438;2024-01-07T14:03:55;2.10;82.70
23560;DHT22;11958;50.836;4.438;2024-01-07T14:06:23;1.90;82.80
23560;DHT22;11958;50.836;4.438;2024-01-07T14:08:51;1.90;83.70
23560;DHT22;11958;50.836;4.438;2024-01-07T14:11:20;1.80;83.10
23560;DHT22;11958;50.836;4.438;2024-01-07T14:13:46;2.00;82.50
23560;DHT22;11958;50.836;4.438;2024-01-07T14:16:15;2.00;82.00
23560;DHT22;11958;50.836;4.438;2024-01-07T14:18:41;1.80;82.40
23560;DHT22;11958;50.836;4.438;2024-01-07T14:21:07;1.80;82.10
23560;DHT22;11958;50.836;4.438;2024-01-07T14:23:35;1.90;81.70
23560;DHT22;11958;50.836;4.438;2024-01-07T14:26:01;2.00;81.90
23560;DHT22;11958;50.836;4.438;2024-01-07T14:28:28;2.10;81.50
23560;DHT22;11958;50.836;4.438;2024-01-07T14:30:53;2.00;81.90
23560;DHT22;11958;50.836;4.438;2024-01-07T14:33:19;2.20;81.20
23560;DHT22;11958;50.836;4.438;2024-01-07T14:35:44;2.20;81.30
23560;DHT22;11958;50.836;4.438;2024-01-07T14:38:10;2.30;81.80
23560;DHT22;11958;50.836;4.438;2024-01-07T14:40:58;2.20;81.10
23560;DHT22;11958;50.836;4.438;2024-01-07T14:43:25;2.10;80.80
23560;DHT22;11958;50.836;4.438;2024-01-07T14:45:50;1.90;81.70
23560;DHT22;11958;50.836;4.438;2024-01-07T14:48:19;1.90;81.20
23560;DHT22;11958;50.836;4.438;2024-01-07T14:50:45;1.90;81.60
23560;DHT22;11958;50.836;4.438;2024-01-07T14:53:13;2.00;80.70
23560;DHT22;11958;50.836;4.438;2024-01-07T14:55:39;1.80;81.60
23560;DHT22;11958;50.836;4.438;2024-01-07T14:58:04;1.80;81.70
23560;DHT22;11958;50.836;4.438;2024-01-07T15:00:30;2.00;81.20
23560;DHT22;11958;50.836;4.438;2024-01-07T15:02:56;2.00;81.40
23560;DHT22;11958;50.836;4.438;2024-01-07T15:05:22;2.00;81.20
23560;DHT22;11958;50.836;4.438;2024-01-07T15:07:47;2.00;81.50
23560;DHT22;11958;50.836;4.438;2024-01-07T15:10:17;1.80;81.10
23560;DHT22;11958;50.836;4.438;2024-01-07T15:12:44;2.00;81.60
23560;DHT22;11958;50.836;4.438;2024-01-07T15:15:10;2.30;80.80
23560;DHT22;11958;50.836;4.438;2024-01-07T15:17:37;2.00;80.90
23560;DHT22;11958;50.836;4.438;2024-01-07T15:20:02;1.90;80.60
23560;DHT22;11958;50.836;4.438;2024-01-07T15:22:29;2.00;80.60
23560;DHT22;11958;50.836;4.438;2024-01-07T15:24:54;1.80;80.80
23560;DHT22;11958;50.836;4.438;2024-01-07T15:27:20;1.90;81.10
23560;DHT22;11958;50.836;4.438;2024-01-07T15:30:09;1.80;81.40
23560;DHT22;11958;50.836;4.438;2024-01-07T15:32:35;1.70;81.40
23560;DHT22;11958;50.836;4.438;2024-01-07T15:35:03;1.80;80.60
23560;DHT22;11958;50.836;4.438;2024-01-07T15:37:53;1.80;80.50
23560;DHT22;11958;50.836;4.438;2024-01-07T15:40:24;1.70;80.60
23560;DHT22;11958;50.836;4.438;2024-01-07T15:42:52;1.60;79.70
23560;DHT22;11958;50.836;4.438;2024-01-07T15:45:18;1.50;80.50
23560;DHT22;11958;50.836;4.438;2024-01-07T15:47:46;1.50;79.60
23560;DHT22;11958;50.836;4.438;2024-01-07T15:50:11;1.60;79.30
23560;DHT22;11958;50.836;4.438;2024-01-07T15:52:38;1.50;79.10
23560;DHT22;11958;50.836;4.438;2024-01-07T15:55:05;1.30;79.10
23560;DHT22;11958;50.836;4.438;2024-01-07T15:57:32;1.40;79.00
23560;DHT22;11958;50.836;4.438;2024-01-07T15:59:57;1.50;77.90
23560;DHT22;11958;50.836;4.438;2024-01-07T16:02:24;1.40;77.30
23560;DHT22;11958;50.836;4.438;2024-01-07T16:04:50;1.30;76.20
23560;DHT22;11958;50.836;4.438;2024-01-07T16:07:16;1.30;75.30
23560;DHT22;11958;50.836;4.438;2024-01-07T16:09:41;1.30;74.20
23560;DHT22;11958;50.836;4.438;2024-01-07T16:12:07;1.30;73.80
23560;DHT22;11958;50.836;4.438;2024-01-07T16:14:33;1.30;74.90
23560;DHT22;11958;50.836;4.438;2024-01-07T16:17:00;1.30;74.20
23560;DHT22;11958;50.836;4.438;2024-01-07T16:19:46;1.70;74.50
23560;DHT22;11958;50.836;4.438;2024-01-07T16:22:18;1.70;72.90
23560;DHT22;11958;50.836;4.438;2024-01-07T16:24:44;1.70;71.70
23560;DHT22;11958;50.836;4.438;2024-01-07T16:27:10;1.70;72.80
23560;DHT22;11958;50.836;4.438;2024-01-07T16:29:36;1.40;73.00
23560;DHT22;11958;50.836;4.438;2024-01-07T16:32:03;1.30;73.20
23560;DHT22;11958;50.836;4.438;2024-01-07T16:34:29;1.40;72.50
23560;DHT22;11958;50.836;4.438;2024-01-07T16:36:54;1.20;72.20
23560;DHT22;11958;50.836;4.438;2024-01-07T16:39:20;1.20;71.50
23560;DHT22;11958;50.836;4.438;2024-01-07T16:41:46;1.20;71.40
23560;DHT22;11958;50.836;4.438;2024-01-07T16:44:12;1.00;71.30
23560;DHT22;11958;50.836;4.438;2024-01-07T16:46:38;0.70;71.00
23560;DHT22;11958;50.836;4.438;2024-01-07T16:49:05;0.90;71.20
23560;DHT22;11958;50.836;4.438;2024-01-07T16:51:32;1.00;71.30
23560;DHT22;11958;50.836;4.438;2024-01-07T16:53:58;1.10;72.10
23560;DHT22;11958;50.836;4.438;2024-01-07T16:56:24;0.90;71.10
23560;DHT22;11958;50.836;4.438;2024-01-07T16:58:50;1.20;71.10
23560;DHT22;11958;50.836;4.438;2024-01-07T17:01:16;0.90;71.60
23560;DHT22;11958;50.836;4.438;2024-01-07T17:03:42;1.10;70.50
23560;DHT22;11958;50.836;4.438;2024-01-07T17:06:08;1.10;70.50
23560;DHT22;11958;50.836;4.438;2024-01-07T17:08:35;0.90;69.50
23560;DHT22;11958;50.836;4.438;2024-01-07T17:11:02;0.90;70.50